Chetwynd, Canada
Current Conditions -  °F | °C
As of 5:00 PM on Tuesday 25 Nov 2014 (Local Time) from CYXJ Reporting Station
Broken Clouds Broken Clouds  
Wind Chill:   Ceiling: 8000
Heat Index:   Visibility: 15mi
Dew Point:   Wind: 5mph
Humidity: 79%   Direction: 120°ESE
Pressure: 30.13"   Gusts: NA
Location:  55.7°N, 121.63°W
Report Text: CYXJ 260000Z 12004KT 15SM BKN080 M13/M16 A3013 RMK AC7 SLP264
Loading
Personal Weather Stations






























Interactive Weather Map New forecast layout! Learn more

10-Day Weather Forecast

Advertisements
Track Severe Weather on mobile